createdAt,value
2019-04-07T00:01:49.255Z,7.87
2019-04-07T00:03:54.958Z,8.83
2019-04-07T00:06:00.438Z,8.90
2019-04-07T00:08:05.971Z,8.63
2019-04-07T00:10:12.048Z,11.12
2019-04-07T00:12:18.078Z,12.98
2019-04-07T00:14:23.514Z,9.25
2019-04-07T00:16:28.917Z,9.28
2019-04-07T00:18:34.361Z,9.10
2019-04-07T00:20:40.248Z,8.25
2019-04-07T00:22:45.702Z,9.98
2019-04-07T00:24:51.210Z,9.50
2019-04-07T00:26:56.678Z,9.38
2019-04-07T00:29:02.094Z,8.48
2019-04-07T00:31:12.402Z,10.78
2019-04-07T00:33:18.141Z,7.42
2019-04-07T00:35:30.936Z,10.40
2019-04-07T00:37:31.168Z,9.83
2019-04-07T00:39:36.693Z,11.18
2019-04-07T00:41:42.111Z,9.38
2019-04-07T00:43:47.523Z,13.93
2019-04-07T00:45:53.329Z,12.10
2019-04-07T00:47:59.364Z,9.88
2019-04-07T00:50:05.242Z,10.72
2019-04-07T00:52:11.859Z,16.35
2019-04-07T00:54:17.299Z,11.12
2019-04-07T00:56:22.766Z,12.07
2019-04-07T00:58:28.191Z,10.25
2019-04-07T01:00:35.686Z,12.33
2019-04-07T01:02:41.508Z,12.18
2019-04-07T01:04:47.309Z,10.72
2019-04-07T01:06:52.812Z,11.85
2019-04-07T01:08:58.214Z,12.58
2019-04-07T01:11:03.645Z,12.65
2019-04-07T01:13:09.237Z,11.95
2019-04-07T01:15:15.113Z,16.75
2019-04-07T01:17:20.577Z,10.72
2019-04-07T01:19:25.998Z,15.95
2019-04-07T01:21:31.518Z,11.85
2019-04-07T01:23:36.986Z,12.82
2019-04-07T01:25:42.425Z,12.55
2019-04-07T01:27:47.930Z,11.97
2019-04-07T01:29:53.423Z,11.78
2019-04-07T01:31:59.372Z,17.07
2019-04-07T01:34:04.938Z,10.88
2019-04-07T01:36:11.106Z,12.18
2019-04-07T01:38:16.831Z,10.75
2019-04-07T01:40:22.263Z,13.00
2019-04-07T01:42:33.410Z,14.23
2019-04-07T01:45:10.489Z,10.03
2019-04-07T01:47:41.077Z,11.90
2019-04-07T01:49:52.523Z,12.03
2019-04-07T01:52:19.670Z,10.80
2019-04-07T01:54:43.610Z,13.53
2019-04-07T01:57:02.977Z,16.67
2019-04-07T01:59:34.336Z,14.05
2019-04-07T02:02:05.078Z,13.70
2019-04-07T02:04:41.572Z,15.10
2019-04-07T02:07:22.154Z,10.40
2019-04-07T02:09:34.752Z,13.85
2019-04-07T02:12:02.611Z,12.20
2019-04-07T02:14:21.355Z,12.93
2019-04-07T02:16:55.363Z,10.23
2019-04-07T02:19:26.674Z,11.48
2019-04-07T02:21:49.160Z,11.90
2019-04-07T02:24:11.403Z,14.20
2019-04-07T02:26:28.975Z,9.88
2019-04-07T02:28:53.796Z,10.68
2019-04-07T02:31:33.408Z,11.53
2019-04-07T02:33:43.859Z,10.55
2019-04-07T02:36:18.196Z,9.25
2019-04-07T02:38:27.425Z,12.55
2019-04-07T02:40:51.431Z,12.60
2019-04-07T02:43:14.213Z,9.53
2019-04-07T02:45:36.629Z,12.65
2019-04-07T02:48:10.785Z,12.82
2019-04-07T02:50:44.262Z,13.20
2019-04-07T02:53:07.585Z,10.70
2019-04-07T02:55:45.239Z,12.05
2019-04-07T02:58:22.771Z,13.15
2019-04-07T03:00:50.776Z,8.30
2019-04-07T03:03:16.962Z,13.78
2019-04-07T03:05:56.569Z,11.05
2019-04-07T03:08:36.322Z,13.60
2019-04-07T03:10:55.413Z,11.95
2019-04-07T03:13:35.386Z,12.33
2019-04-07T03:16:05.722Z,12.10
2019-04-07T03:18:26.404Z,11.12
2019-04-07T03:20:59.409Z,8.90
2019-04-07T03:23:22.611Z,11.48
2019-04-07T03:25:52.867Z,9.73
2019-04-07T03:28:23.454Z,11.63
2019-04-07T03:30:44.945Z,11.38
2019-04-07T03:33:18.036Z,10.00
2019-04-07T03:35:29.064Z,12.95
2019-04-07T03:37:51.452Z,12.55
2019-04-07T03:40:22.368Z,11.38
2019-04-07T03:42:34.673Z,13.68
2019-04-07T03:44:46.909Z,9.95
2019-04-07T03:47:10.243Z,12.18
2019-04-07T03:49:41.456Z,11.83
2019-04-07T03:51:53.482Z,11.95
2019-04-07T03:54:10.121Z,12.55
2019-04-07T03:56:34.230Z,11.25
2019-04-07T03:59:05.552Z,12.35
2019-04-07T04:01:39.418Z,11.20
2019-04-07T04:04:00.711Z,15.05
2019-04-07T04:06:20.588Z,12.23
2019-04-07T04:08:51.027Z,10.88
2019-04-07T04:11:11.619Z,11.65
2019-04-07T04:13:42.281Z,14.60
2019-04-07T04:15:58.856Z,11.50
2019-04-07T04:18:05.396Z,14.73
2019-04-07T04:20:11.091Z,17.00
2019-04-07T04:22:16.522Z,13.30
2019-04-07T04:24:22.878Z,20.77
2019-04-07T04:26:29.055Z,11.40
2019-04-07T04:28:34.863Z,11.70
2019-04-07T04:30:40.305Z,10.85
2019-04-07T04:32:46.382Z,14.70
2019-04-07T04:34:52.005Z,10.82
2019-04-07T04:36:57.482Z,15.95
2019-04-07T04:39:02.923Z,19.45
2019-04-07T04:41:08.415Z,11.03
2019-04-07T04:43:13.871Z,10.95
2019-04-07T04:45:19.331Z,12.30
2019-04-07T04:47:25.210Z,17.35
2019-04-07T04:49:30.809Z,14.03
2019-04-07T04:51:39.305Z,12.00
2019-04-07T04:53:44.235Z,11.50
2019-04-07T04:55:49.788Z,14.50
2019-04-07T04:57:55.320Z,13.15
2019-04-07T05:00:01.986Z,15.13
2019-04-07T05:02:07.793Z,10.85
2019-04-07T05:04:13.440Z,10.60
2019-04-07T05:06:18.867Z,13.60
2019-04-07T05:08:24.736Z,13.38
2019-04-07T05:10:30.992Z,14.65
2019-04-07T05:12:36.943Z,14.43
2019-04-07T05:14:42.895Z,13.08
2019-04-07T05:16:49.130Z,15.35
2019-04-07T05:18:54.747Z,14.58
2019-04-07T05:21:00.556Z,17.67
2019-04-07T05:23:06.054Z,15.80
2019-04-07T05:25:11.983Z,12.63
2019-04-07T05:27:17.546Z,11.83
2019-04-07T05:29:23.596Z,12.75
2019-04-07T05:31:29.303Z,11.95
2019-04-07T05:33:34.738Z,13.48
2019-04-07T05:35:40.469Z,12.95
2019-04-07T05:37:46.155Z,14.35
2019-04-07T05:39:51.647Z,9.70
2019-04-07T05:41:57.106Z,9.10
2019-04-07T05:44:02.623Z,12.23
2019-04-07T05:46:13.848Z,10.65
2019-04-07T05:48:20.295Z,12.63
2019-04-07T05:50:27.439Z,11.50
2019-04-07T05:52:37.847Z,13.62
2019-04-07T05:54:40.485Z,12.20
2019-04-07T05:56:45.982Z,12.82
2019-04-07T05:58:51.707Z,14.95
2019-04-07T06:00:57.403Z,13.28
2019-04-07T06:03:06.555Z,8.48
2019-04-07T06:05:10.965Z,11.85
2019-04-07T06:07:16.525Z,11.15
2019-04-07T06:09:21.978Z,11.00
2019-04-07T06:11:33.038Z,13.25
2019-04-07T06:13:36.491Z,12.75
2019-04-07T06:15:43.622Z,15.68
2019-04-07T06:17:49.151Z,10.43
2019-04-07T06:19:54.778Z,10.78
2019-04-07T06:22:01.308Z,12.33
2019-04-07T06:24:07.930Z,12.90
2019-04-07T06:26:15.048Z,15.53
2019-04-07T06:28:21.473Z,10.20
2019-04-07T06:30:30.848Z,14.33
2019-04-07T06:32:36.831Z,14.40
2019-04-07T06:34:43.565Z,16.83
2019-04-07T06:36:53.584Z,20.30
2019-04-07T06:38:58.151Z,15.47
2019-04-07T06:41:04.223Z,18.87
2019-04-07T06:43:09.568Z,16.73
2019-04-07T06:45:21.784Z,14.97
2019-04-07T06:47:32.891Z,15.30
2019-04-07T06:49:56.447Z,13.63
2019-04-07T06:52:25.877Z,14.80
2019-04-07T06:54:39.915Z,13.93
2019-04-07T06:57:05.078Z,22.33
2019-04-07T06:59:22.953Z,16.07
2019-04-07T07:01:46.267Z,15.13
2019-04-07T07:04:17.966Z,21.50
2019-04-07T07:06:54.754Z,18.30
2019-04-07T07:09:27.708Z,18.47
2019-04-07T07:11:51.918Z,17.47
2019-04-07T07:14:38.058Z,15.93
2019-04-07T07:16:43.600Z,22.43
2019-04-07T07:19:09.679Z,18.47
2019-04-07T07:21:42.618Z,17.03
2019-04-07T07:23:54.646Z,18.67
2019-04-07T07:26:05.048Z,13.67
2019-04-07T07:28:12.513Z,15.27
2019-04-07T07:30:20.545Z,15.37
2019-04-07T07:32:35.551Z,13.60
2019-04-07T07:34:42.229Z,12.40
2019-04-07T07:36:52.918Z,14.40
2019-04-07T07:39:01.268Z,14.43
2019-04-07T07:41:04.447Z,14.10
2019-04-07T07:43:13.423Z,15.30
2019-04-07T07:45:18.991Z,15.07
2019-04-07T07:47:25.314Z,14.17
2019-04-07T07:49:33.510Z,14.37
2019-04-07T07:51:38.645Z,14.63
2019-04-07T07:53:47.291Z,13.17
2019-04-07T07:55:53.009Z,11.13
2019-04-07T07:57:59.321Z,10.20
2019-04-07T08:00:07.090Z,12.80
2019-04-07T08:02:17.529Z,13.07
2019-04-07T08:04:24.923Z,12.93
2019-04-07T08:06:29.493Z,10.37
2019-04-07T08:08:35.257Z,8.97
2019-04-07T08:10:40.465Z,11.07
2019-04-07T08:12:48.651Z,10.97
2019-04-07T08:14:56.324Z,9.60
2019-04-07T08:17:03.368Z,10.20
2019-04-07T08:19:09.425Z,10.47
2019-04-07T08:21:18.461Z,9.40
2019-04-07T08:23:22.021Z,10.17
2019-04-07T08:25:27.199Z,7.43
2019-04-07T08:27:33.010Z,8.40
2019-04-07T08:29:39.024Z,10.37
2019-04-07T08:31:45.051Z,7.90
2019-04-07T08:33:51.530Z,8.10
2019-04-07T08:35:57.752Z,8.83
2019-04-07T08:38:03.451Z,9.37
2019-04-07T08:40:09.123Z,9.33
2019-04-07T08:42:18.591Z,9.93
2019-04-07T08:44:21.585Z,6.40
2019-04-07T08:46:32.092Z,13.53
2019-04-07T08:48:37.529Z,9.00
2019-04-07T08:50:42.739Z,9.53
2019-04-07T08:52:47.879Z,8.93
2019-04-07T08:54:53.492Z,9.30
2019-04-07T08:56:59.185Z,8.37
2019-04-07T08:59:07.912Z,10.00
2019-04-07T09:01:12.038Z,9.27
2019-04-07T09:03:18.387Z,9.70
2019-04-07T09:05:27.780Z,10.63
2019-04-07T09:07:31.025Z,9.70
2019-04-07T09:09:42.793Z,9.80
2019-04-07T09:11:44.135Z,8.90
2019-04-07T09:13:54.739Z,7.50
2019-04-07T09:16:18.484Z,10.00
2019-04-07T09:18:28.425Z,7.40
2019-04-07T09:20:51.792Z,8.80
2019-04-07T09:23:12.405Z,7.77
2019-04-07T09:25:41.054Z,8.30
2019-04-07T09:28:05.433Z,8.47
2019-04-07T09:30:30.737Z,7.60
2019-04-07T09:32:51.626Z,7.40
2019-04-07T09:35:07.245Z,7.00
2019-04-07T09:37:41.577Z,10.80
2019-04-07T09:40:17.404Z,6.57
2019-04-07T09:42:29.461Z,6.90
2019-04-07T09:44:57.471Z,6.03
2019-04-07T09:47:25.845Z,4.70
2019-04-07T09:49:50.166Z,6.03
2019-04-07T09:52:17.882Z,5.27
2019-04-07T09:54:55.556Z,4.47
2019-04-07T09:57:15.730Z,4.47
2019-04-07T09:59:38.557Z,5.37
2019-04-07T10:02:05.918Z,6.87
2019-04-07T10:04:21.641Z,4.50
2019-04-07T10:06:49.545Z,6.17
2019-04-07T10:09:25.782Z,4.57
2019-04-07T10:11:53.186Z,4.07
2019-04-07T10:14:15.828Z,6.27
2019-04-07T10:16:36.556Z,3.33
2019-04-07T10:18:59.449Z,4.73
2019-04-07T10:21:36.121Z,5.50
2019-04-07T10:24:05.269Z,4.43
2019-04-07T10:26:32.597Z,3.13
2019-04-07T10:28:51.559Z,3.50
2019-04-07T10:31:18.735Z,3.93
2019-04-07T10:33:44.940Z,3.73
2019-04-07T10:36:05.949Z,4.50
2019-04-07T10:38:21.400Z,4.27
2019-04-07T10:40:33.438Z,3.83
2019-04-07T10:42:58.446Z,3.57
2019-04-07T10:45:23.658Z,2.90
2019-04-07T10:47:46.504Z,3.40
2019-04-07T10:50:05.032Z,4.53
2019-04-07T10:52:24.858Z,3.47
2019-04-07T10:54:37.094Z,3.40
2019-04-07T10:56:56.715Z,3.60
2019-04-07T10:59:13.662Z,3.67
2019-04-07T11:01:26.754Z,3.13
2019-04-07T11:03:43.007Z,4.50
2019-04-07T11:06:03.918Z,3.77
2019-04-07T11:08:20.246Z,4.90
2019-04-07T11:10:39.518Z,3.60
2019-04-07T11:13:03.112Z,4.57
2019-04-07T11:15:27.057Z,3.30
2019-04-07T11:17:53.954Z,3.67
2019-04-07T11:20:08.431Z,4.00
2019-04-07T11:22:38.530Z,4.30
2019-04-07T11:24:56.715Z,3.30
2019-04-07T11:27:17.898Z,3.20
2019-04-07T11:29:30.495Z,3.10
2019-04-07T11:31:47.326Z,2.47
2019-04-07T11:34:03.415Z,3.00
2019-04-07T11:36:37.406Z,3.30
2019-04-07T11:38:59.363Z,2.80
2019-04-07T11:41:14.522Z,4.30
2019-04-07T11:43:30.509Z,2.43
2019-04-07T11:46:02.469Z,2.67
2019-04-07T11:48:20.986Z,6.07
2019-04-07T11:50:38.633Z,3.93
2019-04-07T11:53:05.516Z,2.17
2019-04-07T11:55:39.152Z,5.50
2019-04-07T11:58:09.842Z,4.40
2019-04-07T12:00:41.460Z,3.53
2019-04-07T12:03:03.975Z,3.77
2019-04-07T12:05:34.735Z,4.10
2019-04-07T12:07:58.435Z,3.03
2019-04-07T12:10:25.733Z,3.33
2019-04-07T12:12:53.808Z,3.87
2019-04-07T12:15:22.059Z,3.67
2019-04-07T12:17:47.623Z,4.50
2019-04-07T12:20:10.838Z,4.30
2019-04-07T12:22:26.002Z,3.30
2019-04-07T12:24:59.387Z,2.63
2019-04-07T12:27:28.486Z,3.03
2019-04-07T12:29:54.058Z,3.40
2019-04-07T12:32:18.192Z,4.23
2019-04-07T12:34:45.858Z,3.27
2019-04-07T12:37:03.059Z,2.47
2019-04-07T12:39:34.951Z,6.33
2019-04-07T12:41:58.053Z,2.60
2019-04-07T12:44:10.465Z,3.73
2019-04-07T12:46:34.610Z,4.83
2019-04-07T12:48:45.486Z,3.83
2019-04-07T12:51:09.558Z,4.23
2019-04-07T12:53:24.022Z,4.13
2019-04-07T12:55:57.962Z,5.17
2019-04-07T12:58:23.432Z,5.80
2019-04-07T13:00:54.477Z,3.17
2019-04-07T13:02:59.780Z,4.57
2019-04-07T13:05:34.514Z,2.77
2019-04-07T13:07:55.212Z,4.57
2019-04-07T13:10:16.186Z,6.23
2019-04-07T13:12:29.663Z,3.93
2019-04-07T13:14:47.822Z,5.57
2019-04-07T13:17:21.639Z,7.10
2019-04-07T13:19:50.302Z,7.60
2019-04-07T13:22:20.484Z,5.43
2019-04-07T13:24:50.983Z,3.67
2019-04-07T13:27:12.449Z,4.53
2019-04-07T13:29:39.761Z,4.37
2019-04-07T13:31:58.172Z,5.27
2019-04-07T13:34:12.773Z,6.30
2019-04-07T13:36:41.826Z,6.67
2019-04-07T13:38:53.381Z,4.60
2019-04-07T13:41:16.167Z,4.67
2019-04-07T13:43:32.627Z,3.93
2019-04-07T13:45:55.711Z,4.27
2019-04-07T13:48:13.572Z,3.67
2019-04-07T13:50:24.574Z,5.17
2019-04-07T13:52:59.086Z,5.00
2019-04-07T13:55:25.285Z,6.00
2019-04-07T13:57:58.105Z,3.90
2019-04-07T14:00:25.167Z,6.13
2019-04-07T14:02:48.930Z,4.00
2019-04-07T14:05:00.924Z,4.80
2019-04-07T14:07:29.497Z,4.40
2019-04-07T14:10:05.898Z,4.77
2019-04-07T14:12:32.350Z,4.70
2019-04-07T14:14:52.642Z,5.10
2019-04-07T14:17:11.219Z,7.43
2019-04-07T14:19:34.432Z,8.20
2019-04-07T14:21:55.738Z,4.63
2019-04-07T14:24:19.914Z,7.83
2019-04-07T14:26:50.034Z,6.70
2019-04-07T14:29:03.072Z,6.60
2019-04-07T14:31:27.270Z,6.80
2019-04-07T14:33:48.055Z,8.13
2019-04-07T14:36:01.614Z,6.90
2019-04-07T14:38:26.530Z,7.97
2019-04-07T14:40:49.838Z,5.60
2019-04-07T14:43:14.672Z,6.60
2019-04-07T14:45:51.532Z,5.80
2019-04-07T14:48:18.818Z,12.90
2019-04-07T14:50:29.749Z,5.70
2019-04-07T14:52:52.403Z,5.57
2019-04-07T14:55:12.936Z,8.03
2019-04-07T14:57:41.570Z,7.90
2019-04-07T15:00:15.281Z,6.90
2019-04-07T15:02:21.501Z,7.73
2019-04-07T15:04:46.573Z,10.70
2019-04-07T15:07:08.033Z,6.43
2019-04-07T15:09:20.479Z,9.30
2019-04-07T15:11:45.364Z,6.43
2019-04-07T15:13:51.287Z,5.30
2019-04-07T15:15:57.178Z,8.20
2019-04-07T15:18:03.575Z,10.10
2019-04-07T15:20:11.625Z,5.37
2019-04-07T15:22:15.879Z,6.97
2019-04-07T15:24:22.645Z,5.80
2019-04-07T15:26:28.205Z,9.03
2019-04-07T15:28:34.055Z,4.47
2019-04-07T15:30:39.588Z,8.33
2019-04-07T15:32:44.750Z,5.80
2019-04-07T15:34:49.886Z,7.30
2019-04-07T15:36:55.714Z,7.23
2019-04-07T15:39:01.297Z,5.33
2019-04-07T15:41:10.758Z,6.57
2019-04-07T15:43:13.330Z,4.60
2019-04-07T15:45:20.315Z,4.27
2019-04-07T15:47:25.465Z,6.30
2019-04-07T15:49:31.059Z,10.73
2019-04-07T15:51:37.654Z,4.42
2019-04-07T15:53:48.477Z,6.67
2019-04-07T15:56:00.539Z,6.12
2019-04-07T15:57:58.477Z,10.00
2019-04-07T16:00:05.491Z,6.92
2019-04-07T16:02:12.166Z,5.95
2019-04-07T16:04:21.268Z,5.10
2019-04-07T16:06:25.879Z,6.65
2019-04-07T16:08:31.993Z,4.53
2019-04-07T16:10:37.506Z,5.12
2019-04-07T16:12:49.555Z,5.65
2019-04-07T16:14:50.410Z,3.80
2019-04-07T16:16:55.558Z,5.17
2019-04-07T16:19:01.423Z,5.53
2019-04-07T16:21:08.983Z,8.15
2019-04-07T16:23:17.501Z,6.50
2019-04-07T16:25:26.170Z,7.42
2019-04-07T16:27:28.291Z,7.28
2019-04-07T16:29:33.522Z,3.83
2019-04-07T16:31:39.077Z,5.72
2019-04-07T16:33:45.379Z,6.10
2019-04-07T16:35:55.113Z,5.25
2019-04-07T16:38:00.083Z,4.35
2019-04-07T16:40:10.357Z,5.72
2019-04-07T16:42:15.285Z,4.35
2019-04-07T16:44:20.945Z,5.45
2019-04-07T16:46:28.313Z,4.95
2019-04-07T16:48:38.169Z,7.83
2019-04-07T16:50:41.814Z,4.85
2019-04-07T16:52:48.402Z,4.20
2019-04-07T16:54:54.742Z,6.37
2019-04-07T16:57:00.430Z,4.35
2019-04-07T16:59:08.387Z,4.75
2019-04-07T17:01:14.304Z,3.95
2019-04-07T17:03:20.505Z,6.67
2019-04-07T17:05:26.219Z,4.92
2019-04-07T17:07:32.798Z,5.40
2019-04-07T17:09:38.567Z,6.10
2019-04-07T17:11:44.947Z,4.80
2019-04-07T17:13:51.302Z,5.55
2019-04-07T17:15:57.243Z,5.08
2019-04-07T17:18:03.354Z,6.12
2019-04-07T17:20:10.191Z,7.10
2019-04-07T17:22:16.928Z,7.20
2019-04-07T17:24:28.537Z,6.92
2019-04-07T17:26:30.816Z,8.10
2019-04-07T17:28:37.738Z,6.75
2019-04-07T17:30:44.422Z,7.60
2019-04-07T17:32:52.075Z,6.35
2019-04-07T17:34:57.957Z,7.35
2019-04-07T17:37:04.100Z,7.37
2019-04-07T17:39:19.120Z,7.80
2019-04-07T17:41:25.174Z,5.78
2019-04-07T17:43:51.377Z,5.37
2019-04-07T17:46:06.315Z,12.75
2019-04-07T17:48:37.402Z,6.62
2019-04-07T17:51:06.296Z,5.75
2019-04-07T17:53:37.275Z,7.30
2019-04-07T17:56:05.504Z,5.92
2019-04-07T17:58:17.580Z,5.67
2019-04-07T18:00:32.638Z,5.00
2019-04-07T18:03:07.568Z,6.15
2019-04-07T18:05:29.258Z,5.85
2019-04-07T18:07:58.559Z,6.33
2019-04-07T18:10:23.779Z,4.95
2019-04-07T18:12:47.889Z,4.55
2019-04-07T18:15:11.655Z,8.80
2019-04-07T18:17:50.021Z,5.47
2019-04-07T18:20:26.938Z,7.22
2019-04-07T18:22:53.937Z,7.45
2019-04-07T18:25:14.699Z,10.48
2019-04-07T18:27:48.330Z,9.50
2019-04-07T18:30:18.391Z,7.17
2019-04-07T18:32:46.685Z,7.30
2019-04-07T18:35:08.970Z,7.00
2019-04-07T18:37:26.096Z,6.22
2019-04-07T18:39:56.528Z,6.33
2019-04-07T18:42:12.884Z,4.90
2019-04-07T18:44:38.681Z,4.30
2019-04-07T18:46:59.917Z,3.90
2019-04-07T18:49:22.821Z,13.90
2019-04-07T18:51:58.005Z,7.60
2019-04-07T18:54:35.497Z,6.90
2019-04-07T18:56:59.190Z,6.62
2019-04-07T18:59:19.227Z,7.17
2019-04-07T19:01:43.230Z,10.18
2019-04-07T19:04:07.056Z,8.30
2019-04-07T19:06:46.418Z,7.42
2019-04-07T19:09:19.570Z,5.30
2019-04-07T19:11:46.964Z,7.58
2019-04-07T19:14:35.638Z,10.28
2019-04-07T19:16:41.839Z,12.55
2019-04-07T19:19:19.307Z,9.63
2019-04-07T19:21:57.205Z,8.80
2019-04-07T19:24:20.926Z,7.90
2019-04-07T19:26:49.791Z,8.33
2019-04-07T19:29:10.626Z,8.73
2019-04-07T19:31:34.233Z,6.40
2019-04-07T19:34:07.686Z,16.20
2019-04-07T19:36:35.514Z,8.15
2019-04-07T19:39:00.955Z,5.90
2019-04-07T19:41:38.261Z,5.35
2019-04-07T19:44:02.851Z,7.58
2019-04-07T19:46:30.230Z,4.97
2019-04-07T19:49:06.666Z,3.20
2019-04-07T19:51:29.412Z,9.53
2019-04-07T19:53:53.535Z,12.05
2019-04-07T19:56:16.554Z,8.85
2019-04-07T19:58:39.518Z,9.30
2019-04-07T20:01:06.444Z,7.03
2019-04-07T20:03:31.951Z,3.87
2019-04-07T20:05:51.983Z,6.20
2019-04-07T20:08:11.944Z,10.82
2019-04-07T20:10:35.864Z,8.28
2019-04-07T20:13:00.477Z,8.43
2019-04-07T20:15:18.089Z,11.05
2019-04-07T20:17:58.422Z,7.75
2019-04-07T20:20:17.447Z,7.28
2019-04-07T20:22:41.510Z,4.83
2019-04-07T20:25:09.731Z,4.22
2019-04-07T20:27:25.510Z,5.55
2019-04-07T20:29:41.921Z,3.45
2019-04-07T20:32:14.233Z,7.05
2019-04-07T20:34:42.871Z,6.40
2019-04-07T20:37:05.120Z,5.40
2019-04-07T20:39:39.152Z,5.90
2019-04-07T20:42:15.885Z,5.35
2019-04-07T20:44:40.770Z,4.47
2019-04-07T20:47:05.122Z,5.95
2019-04-07T20:49:28.251Z,5.05
2019-04-07T20:51:50.649Z,4.53
2019-04-07T20:54:19.450Z,4.80
2019-04-07T20:56:41.981Z,4.20
2019-04-07T20:59:10.222Z,6.08
2019-04-07T21:02:01.613Z,6.08
2019-04-07T21:04:19.920Z,6.72
2019-04-07T21:06:42.167Z,4.97
2019-04-07T21:09:02.187Z,6.72
2019-04-07T21:11:17.318Z,9.28
2019-04-07T21:13:40.467Z,4.65
2019-04-07T21:15:57.510Z,6.30
2019-04-07T21:18:11.458Z,8.55
2019-04-07T21:20:39.033Z,5.20
2019-04-07T21:22:54.007Z,5.53
2019-04-07T21:25:26.445Z,6.85
2019-04-07T21:27:44.651Z,4.50
2019-04-07T21:30:00.227Z,4.50
2019-04-07T21:32:23.582Z,6.47
2019-04-07T21:34:47.242Z,9.03
2019-04-07T21:37:16.231Z,6.53
2019-04-07T21:39:30.577Z,8.98
2019-04-07T21:41:52.772Z,9.30
2019-04-07T21:44:26.919Z,9.33
2019-04-07T21:46:49.379Z,9.50
2019-04-07T21:49:20.579Z,10.82
2019-04-07T21:51:40.980Z,11.38
2019-04-07T21:54:05.663Z,11.48
2019-04-07T21:56:20.287Z,9.68
2019-04-07T21:58:45.409Z,12.18
2019-04-07T22:01:12.264Z,9.63
2019-04-07T22:03:58.696Z,11.57
2019-04-07T22:06:28.143Z,11.85
2019-04-07T22:08:45.311Z,9.00
2019-04-07T22:10:53.558Z,8.55
2019-04-07T22:13:01.799Z,13.68
2019-04-07T22:15:11.659Z,10.40
2019-04-07T22:17:17.040Z,8.28
2019-04-07T22:19:22.534Z,6.25
2019-04-07T22:21:28.606Z,9.20
2019-04-07T22:23:34.006Z,11.33
2019-04-07T22:25:52.780Z,7.78
2019-04-07T22:27:59.103Z,6.60
2019-04-07T22:30:09.125Z,6.15
2019-04-07T22:32:19.217Z,11.78
2019-04-07T22:34:23.111Z,8.03
2019-04-07T22:36:29.799Z,5.00
2019-04-07T22:38:35.720Z,8.33
2019-04-07T22:40:42.022Z,7.53
2019-04-07T22:42:51.979Z,6.25
2019-04-07T22:45:02.118Z,7.12
2019-04-07T22:47:13.125Z,8.30
2019-04-07T22:49:19.801Z,8.08
2019-04-07T22:51:25.966Z,6.55
2019-04-07T22:53:31.549Z,7.45
2019-04-07T22:55:38.778Z,5.90
2019-04-07T22:57:44.780Z,6.22
2019-04-07T22:59:50.421Z,5.87
2019-04-07T23:01:56.635Z,7.83
2019-04-07T23:04:03.521Z,6.12
2019-04-07T23:06:10.559Z,6.05
2019-04-07T23:08:17.689Z,8.73
2019-04-07T23:10:23.298Z,7.28
2019-04-07T23:12:29.294Z,6.33
2019-04-07T23:14:35.914Z,6.72
2019-04-07T23:16:42.259Z,6.40
2019-04-07T23:18:48.289Z,10.25
2019-04-07T23:20:53.780Z,5.90
2019-04-07T23:22:59.339Z,5.70
2019-04-07T23:25:05.778Z,6.40
2019-04-07T23:27:12.397Z,5.50
2019-04-07T23:29:18.280Z,9.40
2019-04-07T23:31:23.784Z,5.92
2019-04-07T23:33:29.791Z,10.20
2019-04-07T23:35:35.285Z,8.78
2019-04-07T23:37:44.506Z,6.25
2019-04-07T23:39:49.914Z,6.55
2019-04-07T23:41:55.330Z,7.05
2019-04-07T23:44:01.023Z,7.28
2019-04-07T23:46:14.002Z,7.12
2019-04-07T23:48:13.769Z,15.28
2019-04-07T23:50:19.334Z,6.97
2019-04-07T23:52:25.109Z,10.70
2019-04-07T23:54:31.013Z,12.85
2019-04-07T23:56:36.875Z,14.28
2019-04-07T23:58:43.430Z,13.78
